createdAt,value
2019-02-17T00:02:19.997Z,1.50
2019-02-17T00:04:48.429Z,1.80
2019-02-17T00:07:16.899Z,2.00
2019-02-17T00:09:45.401Z,2.20
2019-02-17T00:12:13.843Z,2.20
2019-02-17T00:14:42.251Z,2.30
2019-02-17T00:17:10.704Z,1.90
2019-02-17T00:19:39.143Z,1.90
2019-02-17T00:22:07.568Z,1.90
2019-02-17T00:24:35.997Z,1.90
2019-02-17T00:27:04.428Z,1.70
2019-02-17T00:29:32.935Z,1.60
2019-02-17T00:32:01.344Z,1.40
2019-02-17T00:34:29.796Z,1.30
2019-02-17T00:36:58.205Z,1.00
2019-02-17T00:39:26.651Z,0.90
2019-02-17T00:41:55.048Z,0.80
2019-02-17T00:44:23.544Z,0.70
2019-02-17T00:46:51.960Z,0.60
2019-02-17T00:49:20.395Z,0.40
2019-02-17T00:51:48.821Z,0.50
2019-02-17T00:54:17.243Z,0.40
2019-02-17T00:56:45.688Z,0.40
2019-02-17T00:59:14.137Z,0.80
2019-02-17T01:01:42.559Z,1.10
2019-02-17T01:04:11.074Z,1.20
2019-02-17T01:06:39.509Z,1.30
2019-02-17T01:09:07.951Z,1.40
2019-02-17T01:11:36.373Z,1.70
2019-02-17T01:14:04.886Z,1.60
2019-02-17T01:16:33.310Z,1.70
2019-02-17T01:19:01.770Z,1.50
2019-02-17T01:21:30.187Z,1.10
2019-02-17T01:23:58.630Z,1.00
2019-02-17T01:26:27.103Z,0.70
2019-02-17T01:28:55.559Z,1.00
2019-02-17T01:31:23.972Z,1.20
2019-02-17T01:33:52.412Z,1.10
2019-02-17T01:36:20.901Z,1.20
2019-02-17T01:38:49.366Z,1.20
2019-02-17T01:41:17.761Z,1.00
2019-02-17T01:43:46.228Z,0.80
2019-02-17T01:46:14.647Z,0.60
2019-02-17T01:48:43.074Z,0.40
2019-02-17T01:51:11.478Z,0.40
2019-02-17T01:53:39.896Z,0.60
2019-02-17T01:56:08.336Z,0.40
2019-02-17T01:58:36.741Z,0.40
2019-02-17T02:01:05.165Z,0.30
2019-02-17T02:03:33.567Z,0.20
2019-02-17T02:06:02.040Z,0.00
2019-02-17T02:08:30.445Z,0.40
2019-02-17T02:10:58.872Z,0.30
2019-02-17T02:13:33.258Z,0.30
2019-02-17T02:16:01.701Z,0.20
2019-02-17T02:18:30.178Z,0.60
2019-02-17T02:20:58.666Z,0.60
2019-02-17T02:23:27.072Z,0.80
2019-02-17T02:25:55.503Z,1.00
2019-02-17T02:28:23.903Z,1.00
2019-02-17T02:30:52.349Z,1.20
2019-02-17T02:33:20.770Z,1.20
2019-02-17T02:35:49.212Z,1.10
2019-02-17T02:38:17.714Z,1.10
2019-02-17T02:40:46.133Z,1.00
2019-02-17T02:43:14.546Z,0.80
2019-02-17T02:45:42.960Z,0.90
2019-02-17T02:48:11.375Z,1.10
2019-02-17T02:50:39.790Z,0.90
2019-02-17T02:53:08.270Z,0.80
2019-02-17T02:55:36.703Z,0.70
2019-02-17T02:58:05.131Z,0.90
2019-02-17T03:00:33.558Z,0.90
2019-02-17T03:03:01.973Z,0.80
2019-02-17T03:05:30.400Z,1.00
2019-02-17T03:07:58.803Z,0.90
2019-02-17T03:10:27.226Z,0.80
2019-02-17T03:12:55.638Z,1.00
2019-02-17T03:15:24.090Z,1.10
2019-02-17T03:17:52.503Z,1.10
2019-02-17T03:20:20.945Z,1.10
2019-02-17T03:22:49.339Z,1.10
2019-02-17T03:25:17.749Z,1.00
2019-02-17T03:27:46.157Z,0.90
2019-02-17T03:30:14.589Z,0.80
2019-02-17T03:32:43.026Z,0.30
2019-02-17T03:35:11.447Z,0.20
2019-02-17T03:37:39.859Z,0.10
2019-02-17T03:40:09.413Z,0.40
2019-02-17T03:42:37.827Z,0.50
2019-02-17T03:45:08.999Z,0.60
2019-02-17T03:47:37.407Z,0.60
2019-02-17T03:50:07.076Z,0.60
2019-02-17T03:52:35.489Z,0.70
2019-02-17T03:55:04.370Z,0.70
2019-02-17T03:57:32.775Z,0.70
2019-02-17T04:00:01.200Z,0.50
2019-02-17T04:02:29.630Z,0.10
2019-02-17T04:04:58.049Z,0.20
2019-02-17T04:07:26.475Z,0.30
2019-02-17T04:09:54.963Z,0.30
2019-02-17T04:12:23.402Z,0.20
2019-02-17T04:14:51.801Z,0.30
2019-02-17T04:17:20.227Z,0.20
2019-02-17T04:19:48.692Z,-0.10
2019-02-17T04:22:17.117Z,0.00
2019-02-17T04:24:45.597Z,0.20
2019-02-17T04:27:14.022Z,0.00
2019-02-17T04:29:42.431Z,-0.30
2019-02-17T04:32:10.872Z,0.10
2019-02-17T04:34:39.313Z,0.30
2019-02-17T04:37:07.723Z,-0.20
2019-02-17T04:39:36.172Z,-0.50
2019-02-17T04:42:04.582Z,-0.40
2019-02-17T04:44:33.016Z,-0.60
2019-02-17T04:47:01.471Z,-0.70
2019-02-17T04:49:29.905Z,-0.70
2019-02-17T04:51:58.319Z,-0.80
2019-02-17T04:54:26.808Z,-0.80
2019-02-17T04:56:55.231Z,-0.90
2019-02-17T04:59:23.660Z,-1.00
2019-02-17T05:01:52.071Z,-1.10
2019-02-17T05:04:20.500Z,-1.20
2019-02-17T05:06:48.905Z,-1.20
2019-02-17T05:09:17.388Z,-1.20
2019-02-17T05:11:45.805Z,-1.30
2019-02-17T05:14:14.220Z,-1.20
2019-02-17T05:16:42.645Z,-1.10
2019-02-17T05:19:11.063Z,-1.20
2019-02-17T05:21:39.490Z,-0.90
2019-02-17T05:24:07.957Z,-0.90
2019-02-17T05:26:36.436Z,-0.80
2019-02-17T05:29:04.866Z,-0.50
2019-02-17T05:31:33.286Z,-0.60
2019-02-17T05:34:01.719Z,-0.60
2019-02-17T08:17:25.694Z,-0.40
2019-02-17T08:19:54.095Z,6.60
2019-02-17T08:22:22.552Z,7.50
2019-02-17T08:24:50.960Z,7.50
2019-02-17T08:27:19.390Z,6.80
2019-02-17T08:29:47.789Z,6.50
2019-02-17T08:32:16.224Z,7.20
2019-02-17T08:34:44.660Z,7.70
2019-02-17T08:37:13.278Z,7.70
2019-02-17T08:39:41.820Z,7.80
2019-02-17T08:42:10.237Z,8.00
2019-02-17T08:44:38.650Z,8.30
2019-02-17T08:47:07.060Z,8.60
2019-02-17T08:49:35.460Z,9.10
2019-02-17T08:52:03.882Z,9.40
2019-02-17T08:54:32.283Z,9.60
2019-02-17T08:57:00.703Z,9.80
2019-02-17T08:59:29.151Z,10.10
2019-02-17T09:02:05.634Z,10.60
2019-02-17T09:04:27.779Z,10.80
2019-02-17T09:06:56.284Z,10.90
2019-02-17T09:09:24.695Z,10.90
2019-02-17T09:11:53.176Z,11.00
2019-02-17T09:14:21.579Z,11.10
2019-02-17T09:16:50.007Z,11.20
2019-02-17T09:19:18.474Z,11.40
2019-02-17T09:21:46.987Z,11.80
2019-02-17T09:24:15.440Z,11.70
2019-02-17T09:26:43.871Z,12.20
2019-02-17T09:29:12.411Z,12.20
2019-02-17T09:31:40.835Z,12.60
2019-02-17T09:34:09.248Z,12.70
2019-02-17T09:36:37.692Z,12.90
2019-02-17T09:39:08.224Z,12.60
2019-02-17T09:41:36.646Z,12.80
2019-02-17T09:44:05.058Z,13.80
2019-02-17T09:46:33.506Z,14.50
2019-02-17T09:49:01.924Z,15.00
2019-02-17T09:51:30.326Z,15.20
2019-02-17T09:53:58.798Z,15.50
2019-02-17T09:56:27.199Z,15.70
2019-02-17T09:58:55.656Z,15.90
2019-02-17T10:01:24.082Z,15.80
2019-02-17T10:03:52.518Z,15.90
2019-02-17T10:06:20.919Z,16.10
2019-02-17T10:08:49.345Z,15.30
2019-02-17T10:11:17.756Z,15.10
2019-02-17T10:13:46.239Z,15.20
2019-02-17T10:16:14.744Z,15.10
2019-02-17T10:18:43.131Z,15.70
2019-02-17T10:21:11.527Z,15.10
2019-02-17T10:23:39.985Z,16.30
2019-02-17T10:26:08.404Z,16.80
2019-02-17T10:28:42.418Z,17.30
2019-02-17T10:31:06.972Z,17.60
2019-02-17T10:33:35.383Z,17.90
2019-02-17T10:36:03.796Z,17.60
2019-02-17T10:38:32.244Z,18.00
2019-02-17T10:41:00.655Z,18.50
2019-02-17T10:43:29.096Z,19.20
2019-02-17T10:45:57.496Z,19.50
2019-02-17T10:48:25.932Z,19.50
2019-02-17T10:50:54.341Z,19.60
2019-02-17T10:53:22.779Z,19.80
2019-02-17T10:55:51.196Z,19.80
2019-02-17T10:58:19.632Z,19.70
2019-02-17T11:00:48.055Z,19.90
2019-02-17T11:03:16.500Z,20.10
2019-02-17T11:05:44.908Z,19.90
2019-02-17T11:08:13.459Z,20.40
2019-02-17T11:10:41.898Z,20.50
2019-02-17T11:13:10.342Z,20.90
2019-02-17T11:15:38.791Z,20.70
2019-02-17T11:18:07.242Z,20.00
2019-02-17T11:20:35.652Z,20.10
2019-02-17T11:23:04.108Z,20.20
2019-02-17T11:25:32.517Z,20.20
2019-02-17T11:28:00.969Z,20.10
2019-02-17T11:30:29.376Z,20.40
2019-02-17T11:32:58.378Z,20.70
2019-02-17T11:35:26.867Z,21.00
2019-02-17T11:37:55.282Z,21.40
2019-02-17T11:40:23.704Z,20.80
2019-02-17T11:42:52.187Z,21.20
2019-02-17T11:45:20.737Z,21.40
2019-02-17T11:47:49.196Z,21.40
2019-02-17T11:50:17.636Z,21.00
2019-02-17T11:52:46.041Z,22.30
2019-02-17T11:55:15.727Z,22.80
2019-02-17T11:57:44.143Z,22.80
2019-02-17T12:00:20.354Z,22.30
2019-02-17T12:02:48.840Z,22.80
2019-02-17T12:05:17.425Z,23.50
2019-02-17T12:07:45.831Z,23.60
2019-02-17T12:10:14.262Z,23.20
2019-02-17T12:12:42.662Z,23.30
2019-02-17T12:15:12.955Z,22.90
2019-02-17T12:17:41.359Z,22.90
2019-02-17T12:20:22.859Z,23.50
2019-02-17T12:22:52.918Z,24.10
2019-02-17T12:25:22.990Z,22.60
2019-02-17T12:27:53.020Z,23.30
2019-02-17T12:30:21.465Z,22.60
2019-02-17T12:32:49.893Z,22.90
2019-02-17T12:35:18.340Z,23.40
2019-02-17T12:37:47.371Z,23.40
2019-02-17T12:40:16.057Z,23.50
2019-02-17T12:42:44.517Z,23.30
2019-02-17T12:45:17.993Z,22.90
2019-02-17T12:47:43.954Z,23.00
2019-02-17T12:50:12.832Z,23.60
2019-02-17T12:52:47.216Z,23.70
2019-02-17T12:55:11.402Z,23.70
2019-02-17T12:57:39.791Z,23.10
2019-02-17T13:00:12.003Z,23.80
2019-02-17T13:02:40.425Z,24.00
2019-02-17T13:05:09.896Z,24.50
2019-02-17T13:07:38.327Z,24.40
2019-02-17T13:10:09.396Z,24.50
2019-02-17T13:12:37.804Z,24.50
2019-02-17T13:15:09.375Z,25.00
2019-02-17T13:17:37.859Z,24.80
2019-02-17T13:20:09.207Z,24.00
2019-02-17T13:22:37.616Z,24.40
2019-02-17T13:25:09.116Z,24.60
2019-02-17T13:27:37.538Z,24.60
2019-02-17T13:30:17.826Z,24.30
2019-02-17T13:32:46.227Z,24.30
2019-02-17T13:35:14.664Z,25.00
2019-02-17T13:37:43.088Z,24.70
2019-02-17T13:40:13.543Z,23.90
2019-02-17T13:42:41.963Z,23.10
2019-02-17T13:45:12.618Z,22.50
2019-02-17T13:47:41.059Z,21.60
2019-02-17T13:50:11.913Z,21.10
2019-02-17T13:52:40.314Z,21.50
2019-02-17T13:55:09.584Z,21.70
2019-02-17T13:57:38.079Z,21.70
2019-02-17T14:00:09.912Z,21.50
2019-02-17T14:02:38.319Z,19.90
2019-02-17T14:05:07.384Z,19.40
2019-02-17T14:07:35.796Z,19.90
2019-02-17T14:10:06.575Z,20.10
2019-02-17T14:12:34.972Z,20.20
2019-02-17T14:15:04.458Z,20.20
2019-02-17T14:17:32.864Z,20.30
2019-02-17T14:20:01.299Z,20.70
2019-02-17T14:22:29.696Z,21.00
2019-02-17T14:24:58.096Z,20.80
2019-02-17T14:27:26.528Z,20.90
2019-02-17T14:29:54.939Z,21.20
2019-02-17T14:32:23.376Z,21.20
2019-02-17T14:34:51.794Z,21.30
2019-02-17T14:37:20.279Z,21.40
2019-02-17T14:39:49.018Z,21.40
2019-02-17T14:42:17.548Z,21.40
2019-02-17T14:44:45.952Z,21.30
2019-02-17T14:47:14.386Z,21.20
2019-02-17T14:49:42.794Z,21.10
2019-02-17T14:52:11.220Z,21.60
2019-02-17T14:54:39.634Z,21.80
2019-02-17T14:57:08.082Z,21.90
2019-02-17T14:59:36.490Z,21.70
2019-02-17T15:02:04.939Z,21.70
2019-02-17T15:04:33.347Z,21.40
2019-02-17T15:07:01.785Z,21.30
2019-02-17T15:09:30.179Z,20.90
2019-02-17T15:11:58.705Z,20.70
2019-02-17T15:14:27.124Z,20.70
2019-02-17T15:16:55.577Z,20.50
2019-02-17T15:19:24.841Z,20.80
2019-02-17T15:21:53.311Z,21.00
2019-02-17T15:24:21.733Z,21.00
2019-02-17T15:26:50.170Z,20.90
2019-02-17T15:29:18.603Z,20.80
2019-02-17T15:31:47.046Z,20.60
2019-02-17T15:34:18.743Z,20.50
2019-02-17T15:36:46.042Z,20.00
2019-02-17T15:39:14.591Z,19.30
2019-02-17T15:41:43.052Z,18.40
2019-02-17T15:44:11.479Z,18.60
2019-02-17T15:46:39.920Z,19.10
2019-02-17T15:49:08.315Z,19.40
2019-02-17T15:51:36.748Z,19.50
2019-02-17T15:54:05.223Z,19.60
2019-02-17T15:56:33.655Z,19.20
2019-02-17T15:59:02.060Z,19.40
2019-02-17T16:01:30.505Z,19.30
2019-02-17T16:03:58.918Z,19.20
2019-02-17T16:06:27.341Z,19.00
2019-02-17T16:08:55.744Z,19.00
2019-02-17T16:11:24.189Z,18.90
2019-02-17T16:13:52.599Z,18.80
2019-02-17T16:16:21.024Z,18.80
2019-02-17T16:18:49.462Z,18.60
2019-02-17T16:21:17.867Z,18.50
2019-02-17T16:23:46.311Z,18.40
2019-02-17T16:26:14.707Z,18.10
2019-02-17T16:28:43.157Z,17.90
2019-02-17T16:31:11.557Z,17.70
2019-02-17T16:33:40.005Z,17.40
2019-02-17T16:36:08.406Z,17.20
2019-02-17T16:38:36.831Z,17.00
2019-02-17T16:41:05.261Z,16.80
2019-02-17T16:43:33.738Z,16.60
2019-02-17T16:46:02.152Z,16.40
2019-02-17T16:48:30.580Z,16.20
2019-02-17T16:51:00.956Z,16.00
2019-02-17T16:53:29.164Z,15.90
2019-02-17T16:55:57.584Z,15.80
2019-02-17T16:58:26.011Z,15.60
2019-02-17T17:00:54.435Z,15.50
2019-02-17T17:03:22.892Z,15.40
2019-02-17T17:05:51.306Z,15.30
2019-02-17T17:08:19.780Z,15.20
2019-02-17T17:10:48.238Z,15.00
2019-02-17T17:13:16.735Z,14.80
2019-02-17T17:15:45.138Z,14.50
2019-02-17T17:18:13.627Z,14.30
2019-02-17T17:20:42.032Z,14.20
2019-02-17T17:23:10.477Z,14.20
2019-02-17T17:25:38.908Z,14.30
2019-02-17T17:28:07.407Z,14.20
2019-02-17T17:30:35.821Z,14.10
2019-02-17T17:33:04.264Z,13.40
2019-02-17T17:35:32.668Z,13.10
2019-02-17T17:38:01.104Z,12.70
2019-02-17T17:40:29.545Z,12.40
2019-02-17T17:42:58.008Z,12.40
2019-02-17T17:45:26.439Z,12.40
2019-02-17T17:47:54.891Z,12.50
2019-02-17T17:50:23.273Z,12.60
2019-02-17T17:52:51.732Z,12.60
2019-02-17T17:55:20.165Z,12.70
2019-02-17T17:57:48.627Z,12.60
2019-02-17T18:00:24.432Z,12.60
2019-02-17T18:02:52.866Z,12.50
2019-02-17T18:05:21.266Z,11.70
2019-02-17T18:07:49.773Z,11.40
2019-02-17T18:10:18.187Z,11.00
2019-02-17T18:12:46.681Z,10.50
2019-02-17T18:15:17.684Z,10.20
2019-02-17T18:17:53.808Z,10.30
2019-02-17T18:20:16.475Z,10.50
2019-02-17T18:22:45.030Z,9.90
2019-02-17T18:25:14.304Z,10.00
2019-02-17T18:27:42.935Z,9.90
2019-02-17T18:30:18.673Z,9.90
2019-02-17T18:32:47.110Z,9.80
2019-02-17T18:35:19.868Z,9.60
2019-02-17T18:37:45.893Z,9.60
2019-02-17T18:40:15.974Z,9.80
2019-02-17T18:42:44.429Z,9.80
2019-02-17T18:45:14.063Z,9.50
2019-02-17T18:47:42.514Z,9.40
2019-02-17T18:50:18.268Z,9.30
2019-02-17T18:52:46.838Z,8.90
2019-02-17T18:55:15.757Z,9.00
2019-02-17T18:57:50.237Z,9.00
2019-02-17T19:00:20.124Z,8.90
2019-02-17T19:02:48.555Z,9.10
2019-02-17T19:05:17.005Z,8.90
2019-02-17T19:07:45.440Z,8.70
2019-02-17T19:10:14.636Z,8.60
2019-02-17T19:12:43.350Z,8.40
2019-02-17T19:15:19.938Z,8.30
2019-02-17T19:17:48.423Z,8.40
2019-02-17T19:20:25.424Z,8.50
2019-02-17T19:22:55.782Z,8.50
2019-02-17T19:25:25.156Z,8.60
2019-02-17T19:27:53.569Z,8.40
2019-02-17T19:30:31.328Z,8.40
2019-02-17T19:32:59.840Z,8.30
2019-02-17T19:35:28.401Z,8.20
2019-02-17T19:37:56.897Z,8.20
2019-02-17T19:40:25.435Z,8.30
2019-02-17T19:42:53.873Z,8.20
2019-02-17T19:45:25.463Z,8.10
2019-02-17T19:47:53.909Z,7.50
2019-02-17T19:50:22.387Z,7.50
2019-02-17T19:52:50.905Z,7.40
2019-02-17T19:55:19.342Z,7.40
2019-02-17T19:57:47.899Z,7.20
2019-02-17T20:00:21.577Z,7.10
2019-02-17T20:03:10.082Z,6.90
2019-02-17T20:05:51.725Z,6.80
2019-02-17T20:08:13.369Z,6.80
2019-02-17T20:10:42.381Z,6.80
2019-02-17T20:13:11.032Z,6.80
2019-02-17T20:15:39.657Z,6.80
2019-02-17T20:18:08.236Z,6.70
2019-02-17T20:20:36.870Z,6.70
2019-02-17T20:23:05.595Z,6.50
2019-02-17T20:25:34.188Z,6.60
2019-02-17T20:28:02.742Z,6.40
2019-02-17T20:30:31.253Z,6.50
2019-02-17T20:32:59.861Z,6.60
2019-02-17T20:35:31.479Z,6.70
2019-02-17T20:38:07.675Z,6.70
2019-02-17T20:40:36.194Z,6.70
2019-02-17T20:43:04.786Z,6.30
2019-02-17T20:45:33.371Z,6.00
2019-02-17T20:48:03.965Z,5.90
2019-02-17T20:50:32.427Z,5.70
2019-02-17T20:53:00.876Z,5.60
2019-02-17T20:55:37.105Z,5.40
2019-02-17T20:58:05.566Z,5.30
2019-02-17T21:00:34.481Z,5.10
2019-02-17T21:03:02.927Z,5.10
2019-02-17T21:05:31.448Z,5.10
2019-02-17T21:08:00.055Z,5.00
2019-02-17T21:10:28.473Z,4.70
2019-02-17T21:13:08.747Z,4.70
2019-02-17T21:15:37.612Z,4.70
2019-02-17T21:18:06.927Z,4.70
2019-02-17T21:20:35.392Z,4.80
2019-02-17T21:23:03.783Z,5.10
2019-02-17T21:25:51.585Z,4.90
2019-02-17T21:28:19.979Z,5.00
2019-02-17T21:30:50.550Z,5.00
2019-02-17T21:33:18.705Z,4.70
2019-02-17T21:35:47.190Z,4.60
2019-02-17T21:38:15.643Z,4.50
2019-02-17T21:40:44.069Z,4.40
2019-02-17T21:43:12.480Z,4.30
2019-02-17T21:45:40.911Z,4.20
2019-02-17T21:48:09.419Z,4.00
2019-02-17T21:50:37.847Z,4.00
2019-02-17T21:53:06.249Z,4.00
2019-02-17T21:55:34.749Z,4.00
2019-02-17T21:58:03.174Z,4.00
2019-02-17T22:00:33.266Z,3.90
2019-02-17T22:03:01.673Z,3.80
2019-02-17T22:05:30.070Z,3.80
2019-02-17T22:07:58.528Z,3.80
2019-02-17T22:10:26.935Z,3.80
2019-02-17T22:12:55.369Z,4.00
2019-02-17T22:15:24.269Z,4.20
2019-02-17T22:17:52.739Z,4.20
2019-02-17T22:20:21.164Z,4.20
2019-02-17T22:22:49.558Z,4.00
2019-02-17T22:25:18.044Z,3.80
2019-02-17T22:27:46.594Z,3.70
2019-02-17T22:30:15.948Z,3.50
2019-02-17T22:32:44.555Z,3.20
2019-02-17T22:35:12.959Z,3.10
2019-02-17T22:37:41.405Z,3.20
2019-02-17T22:40:14.581Z,3.20
2019-02-17T22:42:43.077Z,3.30
2019-02-17T22:45:12.127Z,3.20
2019-02-17T22:47:40.655Z,3.20
2019-02-17T22:50:10.926Z,3.50
2019-02-17T22:52:39.344Z,3.60
2019-02-17T22:55:14.404Z,3.80
2019-02-17T22:57:42.926Z,3.80
2019-02-17T23:00:19.717Z,3.80
2019-02-17T23:02:48.220Z,3.70
2019-02-17T23:05:16.678Z,3.20
2019-02-17T23:07:45.109Z,2.80
2019-02-17T23:10:13.666Z,2.90
2019-02-17T23:12:42.094Z,3.20
2019-02-17T23:15:10.626Z,3.20
2019-02-17T23:17:39.052Z,3.00
2019-02-17T23:20:08.125Z,2.60
2019-02-17T23:22:36.734Z,2.50
2019-02-17T23:25:07.848Z,2.60
2019-02-17T23:27:36.281Z,2.80
2019-02-17T23:30:06.883Z,2.90
2019-02-17T23:32:35.336Z,2.30
2019-02-17T23:35:04.229Z,2.20
2019-02-17T23:37:32.653Z,2.30
2019-02-17T23:40:01.079Z,2.20
2019-02-17T23:42:29.526Z,2.30
2019-02-17T23:44:57.935Z,2.60
2019-02-17T23:47:26.357Z,2.70
2019-02-17T23:49:54.759Z,2.90
2019-02-17T23:52:23.199Z,2.90
2019-02-17T23:54:51.584Z,2.40
2019-02-17T23:57:20.020Z,2.50
2019-02-17T23:59:48.459Z,2.40
